Hawick, United Kingdom
Current Conditions -  °F | °C
As of 3:50 PM on Sunday 21 Dec 2014 (Local Time) from EGOM Reporting Station
Drizzle Drizzle  
Wind Chill: 39°   Ceiling: NA
Heat Index: 48°   Visibility: 4mi
Dew Point: 48°   Wind: 31mph
Humidity: 100%   Direction: 230°SW
Pressure: 29.77"   Gusts: 45mph
Location:  55.42°N, 2.79°W
Report Text: EGOM 211550Z AUTO 23027G39KT 7000 -DZ ///////// 09/09 Q1008
Loading
Personal Weather Stations






























Interactive Weather Map New forecast layout! Learn more

10-Day Weather Forecast

Advertisements
Track Severe Weather on mobile